createdAt,value
2023-05-09T00:00:12.445Z,5.40
2023-05-09T00:02:46.001Z,6.03
2023-05-09T00:05:15.542Z,5.43
2023-05-09T00:07:44.767Z,6.15
2023-05-09T00:10:13.794Z,5.10
2023-05-09T00:12:43.718Z,5.35
2023-05-09T00:15:16.105Z,5.85
2023-05-09T00:17:46.733Z,5.43
2023-05-09T00:20:15.786Z,5.63
2023-05-09T00:22:44.788Z,6.20
2023-05-09T00:25:13.984Z,5.88
2023-05-09T00:27:46.651Z,5.63
2023-05-09T00:30:16.045Z,6.15
2023-05-09T00:32:46.541Z,5.53
2023-05-09T00:35:16.240Z,6.23
2023-05-09T00:37:45.489Z,6.25
2023-05-09T00:40:15.029Z,6.18
2023-05-09T00:42:44.133Z,6.93
2023-05-09T00:45:13.531Z,6.22
2023-05-09T00:47:42.803Z,5.35
2023-05-09T00:50:13.943Z,5.80
2023-05-09T00:52:43.133Z,5.55
2023-05-09T00:55:12.835Z,6.20
2023-05-09T00:57:41.981Z,5.25
2023-05-09T01:00:13.463Z,6.13
2023-05-09T01:02:43.347Z,5.72
2023-05-09T01:05:14.664Z,5.15
2023-05-09T01:07:51.296Z,5.10
2023-05-09T01:10:26.590Z,5.53
2023-05-09T01:13:05.102Z,4.70
2023-05-09T01:15:40.747Z,4.10
2023-05-09T01:18:17.290Z,4.28
2023-05-09T01:20:53.322Z,4.20
2023-05-09T01:24:02.873Z,4.53
2023-05-09T01:26:44.646Z,4.85
2023-05-09T01:29:35.350Z,4.55
2023-05-09T01:32:08.572Z,5.37
2023-05-09T01:34:41.971Z,5.10
2023-05-09T01:37:12.367Z,4.80
2023-05-09T01:39:46.222Z,4.67
2023-05-09T01:42:18.155Z,5.05
2023-05-09T01:44:50.627Z,5.18
2023-05-09T01:47:20.967Z,5.03
2023-05-09T01:49:51.321Z,5.32
2023-05-09T01:52:22.598Z,5.15
2023-05-09T01:54:53.649Z,4.38
2023-05-09T01:57:23.987Z,5.03
2023-05-09T01:59:55.443Z,4.53
2023-05-09T02:02:26.104Z,4.18
2023-05-09T02:04:57.561Z,4.30
2023-05-09T02:09:59.257Z,4.87
2023-05-09T02:12:28.580Z,4.50
2023-05-09T02:14:59.000Z,5.13
2023-05-09T02:17:30.904Z,5.10
2023-05-09T02:20:00.079Z,4.43
2023-05-09T02:22:29.661Z,5.07
2023-05-09T02:25:00.624Z,5.82
2023-05-09T02:27:34.394Z,4.45
2023-05-09T02:30:07.666Z,4.85
2023-05-09T02:32:38.245Z,4.57
2023-05-09T02:35:09.965Z,4.45
2023-05-09T02:37:39.444Z,4.53
2023-05-09T02:40:10.980Z,3.65
2023-05-09T02:42:40.024Z,4.28
2023-05-09T02:45:11.951Z,3.70
2023-05-09T02:47:41.360Z,3.85
2023-05-09T02:50:10.910Z,3.95
2023-05-09T02:52:41.020Z,3.38
2023-05-09T02:55:10.827Z,3.80
2023-05-09T02:57:42.340Z,3.63
2023-05-09T03:00:14.464Z,3.30
2023-05-09T03:02:43.676Z,3.25
2023-05-09T03:05:18.400Z,3.80
2023-05-09T03:07:47.473Z,3.88
2023-05-09T03:10:16.554Z,3.70
2023-05-09T03:12:45.652Z,3.13
2023-05-09T03:15:16.264Z,3.88
2023-05-09T03:20:41.243Z,4.45
2023-05-09T03:23:12.610Z,3.80
2023-05-09T03:25:54.844Z,4.20
2023-05-09T03:28:23.917Z,4.15
2023-05-09T03:30:54.358Z,3.80
2023-05-09T03:33:26.743Z,3.95
2023-05-09T03:35:57.242Z,4.10
2023-05-09T03:38:26.626Z,3.78
2023-05-09T03:40:55.895Z,3.42
2023-05-09T03:43:25.429Z,3.50
2023-05-09T03:45:56.156Z,4.38
2023-05-09T03:48:25.624Z,3.33
2023-05-09T03:50:54.783Z,3.70
2023-05-09T03:53:25.475Z,3.40
2023-05-09T03:55:57.340Z,3.40
2023-05-09T03:58:27.558Z,4.03
2023-05-09T04:00:58.374Z,3.65
2023-05-09T04:03:28.326Z,3.38
2023-05-09T04:05:57.531Z,4.07
2023-05-09T04:08:39.940Z,3.47
2023-05-09T04:11:09.705Z,4.10
2023-05-09T04:13:40.795Z,3.47
2023-05-09T04:16:24.628Z,3.88
2023-05-09T04:18:53.716Z,3.50
2023-05-09T04:21:22.819Z,3.72
2023-05-09T04:23:55.567Z,3.83
2023-05-09T04:26:32.351Z,3.42
2023-05-09T04:29:02.344Z,3.53
2023-05-09T04:31:32.961Z,3.92
2023-05-09T04:34:03.288Z,3.97
2023-05-09T04:36:35.262Z,3.45
2023-05-09T04:39:05.239Z,3.97
2023-05-09T04:41:36.301Z,3.95
2023-05-09T04:44:05.461Z,4.40
2023-05-09T04:46:36.052Z,3.83
2023-05-09T04:49:05.404Z,3.97
2023-05-09T04:51:34.570Z,4.38
2023-05-09T04:54:03.727Z,3.40
2023-05-09T04:56:35.976Z,3.90
2023-05-09T04:59:05.363Z,4.15
2023-05-09T05:01:35.979Z,4.10
2023-05-09T05:04:05.290Z,4.93
2023-05-09T05:06:35.332Z,3.60
2023-05-09T05:09:05.132Z,4.10
2023-05-09T05:11:34.163Z,4.30
2023-05-09T05:14:05.024Z,3.88
2023-05-09T05:16:35.918Z,3.70
2023-05-09T05:19:05.260Z,3.83
2023-05-09T05:21:38.899Z,3.80
2023-05-09T05:24:08.420Z,4.25
2023-05-09T05:26:37.833Z,3.97
2023-05-09T05:29:07.583Z,4.35
2023-05-09T05:31:38.186Z,3.80
2023-05-09T05:34:07.406Z,4.00
2023-05-09T05:36:36.569Z,4.07
2023-05-09T05:39:05.881Z,4.22
2023-05-09T05:41:34.916Z,3.80
2023-05-09T05:44:06.859Z,4.82
2023-05-09T05:46:38.183Z,4.28
2023-05-09T05:49:07.944Z,4.50
2023-05-09T05:51:37.151Z,4.32
2023-05-09T05:54:07.310Z,4.97
2023-05-09T05:56:37.403Z,4.65
2023-05-09T05:59:07.055Z,3.97
2023-05-09T06:01:37.500Z,4.18
2023-05-09T06:04:06.984Z,4.35
2023-05-09T06:06:36.676Z,4.20
2023-05-09T06:09:05.841Z,4.88
2023-05-09T06:11:34.945Z,4.72
2023-05-09T06:14:05.735Z,5.15
2023-05-09T06:16:35.095Z,4.90
2023-05-09T06:19:05.507Z,3.83
2023-05-09T06:21:34.551Z,4.88
2023-05-09T06:24:11.892Z,3.88
2023-05-09T06:26:46.103Z,4.18
2023-05-09T06:29:16.575Z,5.00
2023-05-09T06:31:45.738Z,4.00
2023-05-09T06:34:16.205Z,4.88
2023-05-09T06:36:45.225Z,4.37
2023-05-09T06:39:14.274Z,4.45
2023-05-09T06:41:43.255Z,4.03
2023-05-09T06:44:12.258Z,4.18
2023-05-09T06:46:41.473Z,4.40
2023-05-09T06:49:11.081Z,4.95
2023-05-09T06:51:41.569Z,4.45
2023-05-09T06:54:10.609Z,4.30
2023-05-09T06:56:39.661Z,4.60
2023-05-09T06:59:13.214Z,4.78
2023-05-09T07:01:42.258Z,3.95
2023-05-09T07:04:11.361Z,5.10
2023-05-09T07:06:41.947Z,4.32
2023-05-09T07:09:11.251Z,4.20
2023-05-09T07:11:40.334Z,4.80
2023-05-09T07:14:09.350Z,4.40
2023-05-09T07:16:38.426Z,4.40
2023-05-09T07:19:07.509Z,5.00
2023-05-09T07:21:36.544Z,3.88
2023-05-09T07:24:07.814Z,4.05
2023-05-09T07:26:36.878Z,4.22
2023-05-09T07:29:05.978Z,3.80
2023-05-09T07:31:37.260Z,3.60
2023-05-09T07:34:07.378Z,4.40
2023-05-09T07:39:09.344Z,3.65
2023-05-09T07:41:38.386Z,3.92
2023-05-09T07:44:09.448Z,3.90
2023-05-09T07:46:40.450Z,3.83
2023-05-09T07:49:09.678Z,3.17
2023-05-09T07:51:38.722Z,3.45
2023-05-09T07:54:10.208Z,3.97
2023-05-09T07:56:39.321Z,3.45
2023-05-09T07:59:08.614Z,3.75
2023-05-09T08:01:37.661Z,3.65
2023-05-09T08:04:09.225Z,3.63
2023-05-09T08:06:38.384Z,3.55
2023-05-09T08:09:08.816Z,3.75
2023-05-09T08:11:38.136Z,3.73
2023-05-09T08:14:07.202Z,4.85
2023-05-09T08:16:36.390Z,3.70
2023-05-09T08:19:05.431Z,3.63
2023-05-09T08:21:34.417Z,3.75
2023-05-09T08:24:03.498Z,3.13
2023-05-09T08:26:34.009Z,3.80
2023-05-09T08:29:03.068Z,4.67
2023-05-09T08:31:32.244Z,4.22
2023-05-09T08:34:01.319Z,3.95
2023-05-09T08:36:30.664Z,4.07
2023-05-09T08:38:59.762Z,3.63
2023-05-09T08:41:29.085Z,4.40
2023-05-09T08:43:59.678Z,5.00
2023-05-09T08:46:32.263Z,4.57
2023-05-09T08:49:02.713Z,4.47
2023-05-09T08:51:33.253Z,4.50
2023-05-09T08:54:02.542Z,4.27
2023-05-09T08:56:32.079Z,3.40
2023-05-09T08:59:02.670Z,4.03
2023-05-09T09:01:34.482Z,3.93
2023-05-09T09:04:06.776Z,3.35
2023-05-09T09:06:36.582Z,4.32
2023-05-09T09:09:08.572Z,3.67
2023-05-09T09:11:38.962Z,4.30
2023-05-09T09:14:14.051Z,3.13
2023-05-09T09:16:45.720Z,4.78
2023-05-09T09:19:18.823Z,3.85
2023-05-09T09:21:51.100Z,4.13
2023-05-09T09:24:24.333Z,4.00
2023-05-09T09:26:53.598Z,3.97
2023-05-09T09:29:24.637Z,4.82
2023-05-09T09:31:55.376Z,3.55
2023-05-09T09:34:25.244Z,4.38
2023-05-09T09:36:54.262Z,4.35
2023-05-09T09:39:23.338Z,4.63
2023-05-09T09:41:52.412Z,4.45
2023-05-09T09:44:23.589Z,4.47
2023-05-09T09:46:54.052Z,3.72
2023-05-09T09:49:24.695Z,3.80
2023-05-09T09:51:55.120Z,4.38
2023-05-09T09:54:26.921Z,3.80
2023-05-09T09:56:56.658Z,3.88
2023-05-09T09:59:28.068Z,4.07
2023-05-09T10:04:28.780Z,3.72
2023-05-09T10:06:59.170Z,4.03
2023-05-09T10:09:29.436Z,5.20
2023-05-09T10:12:02.881Z,4.85
2023-05-09T10:14:35.591Z,5.80
2023-05-09T10:17:06.542Z,5.40
2023-05-09T10:19:39.285Z,5.43
2023-05-09T10:22:12.112Z,6.68
2023-05-09T10:24:47.948Z,6.57
2023-05-09T10:27:22.910Z,5.95
2023-05-09T10:30:04.029Z,6.68
2023-05-09T10:32:42.547Z,5.80
2023-05-09T10:35:14.099Z,5.97
2023-05-09T10:37:43.810Z,5.88
2023-05-09T10:40:15.316Z,5.70
2023-05-09T10:42:45.020Z,6.70
2023-05-09T10:45:16.252Z,5.85
2023-05-09T10:47:46.711Z,6.15
2023-05-09T10:50:16.165Z,5.82
2023-05-09T10:53:11.667Z,5.90
2023-05-09T10:55:51.356Z,5.68
2023-05-09T10:58:28.113Z,5.88
2023-05-09T11:01:00.185Z,5.22
2023-05-09T11:03:50.970Z,6.10
2023-05-09T11:06:42.017Z,5.72
2023-05-09T11:09:28.753Z,5.82
2023-05-09T11:11:59.670Z,5.55
2023-05-09T11:14:39.581Z,6.45
2023-05-09T11:17:11.149Z,7.30
2023-05-09T11:19:59.207Z,5.65
2023-05-09T11:22:29.151Z,5.43
2023-05-09T11:25:05.727Z,6.72
2023-05-09T11:27:46.108Z,5.75
2023-05-09T11:30:16.696Z,6.82
2023-05-09T11:32:49.172Z,6.55
2023-05-09T11:35:21.094Z,6.50
2023-05-09T11:37:52.988Z,6.78
2023-05-09T11:40:23.771Z,6.53
2023-05-09T11:42:57.698Z,6.00
2023-05-09T11:45:29.595Z,5.50
2023-05-09T11:48:01.178Z,5.18
2023-05-09T11:50:30.608Z,5.50
2023-05-09T11:52:59.595Z,5.65
2023-05-09T11:55:30.266Z,5.70
2023-05-09T11:58:00.679Z,5.75
2023-05-09T12:00:29.917Z,5.88
2023-05-09T12:03:00.550Z,6.70
2023-05-09T12:05:29.880Z,5.65
2023-05-09T12:08:04.249Z,5.45
2023-05-09T12:10:33.389Z,4.50
2023-05-09T12:13:02.457Z,5.50
2023-05-09T12:15:37.409Z,4.97
2023-05-09T12:18:09.285Z,5.18
2023-05-09T12:20:45.444Z,5.65
2023-05-09T12:23:15.022Z,5.07
2023-05-09T12:25:49.945Z,5.32
2023-05-09T12:28:19.746Z,5.38
2023-05-09T12:30:48.952Z,5.35
2023-05-09T12:33:19.951Z,6.07
2023-05-09T12:35:49.874Z,5.90
2023-05-09T12:38:23.380Z,6.35
2023-05-09T12:41:03.846Z,6.13
2023-05-09T12:43:34.227Z,5.83
2023-05-09T12:46:04.167Z,5.88
2023-05-09T12:48:39.108Z,5.97
2023-05-09T12:51:09.282Z,5.88
2023-05-09T12:53:42.726Z,5.55
2023-05-09T12:56:16.624Z,6.07
2023-05-09T12:58:53.364Z,5.30
2023-05-09T13:01:24.316Z,5.53
2023-05-09T13:04:02.429Z,5.00
2023-05-09T13:06:31.450Z,5.75
2023-05-09T13:09:02.364Z,6.13
2023-05-09T13:11:31.596Z,6.47
2023-05-09T13:14:02.372Z,5.38
2023-05-09T13:16:31.482Z,6.07
2023-05-09T13:19:02.835Z,6.78
2023-05-09T13:24:03.042Z,6.70
2023-05-09T13:26:32.102Z,8.05
2023-05-09T13:29:01.168Z,6.93
2023-05-09T13:31:30.283Z,6.85
2023-05-09T13:33:59.319Z,6.38
2023-05-09T13:36:29.721Z,6.70
2023-05-09T13:38:58.740Z,7.20
2023-05-09T13:41:27.816Z,7.03
2023-05-09T13:43:56.997Z,7.07
2023-05-09T13:46:26.120Z,6.53
2023-05-09T13:48:55.588Z,6.78
2023-05-09T13:51:24.647Z,7.60
2023-05-09T13:53:55.082Z,7.22
2023-05-09T13:56:24.145Z,6.90
2023-05-09T13:58:53.435Z,7.35
2023-05-09T14:01:22.542Z,7.32
2023-05-09T14:03:52.503Z,7.97
2023-05-09T14:06:22.280Z,7.95
2023-05-09T14:08:51.485Z,8.10
2023-05-09T14:11:22.035Z,8.60
2023-05-09T14:13:52.565Z,7.77
2023-05-09T14:16:22.020Z,8.33
2023-05-09T14:18:51.053Z,8.13
2023-05-09T14:21:20.091Z,8.65
2023-05-09T14:23:49.676Z,9.45
2023-05-09T14:26:19.245Z,9.75
2023-05-09T14:28:49.866Z,8.68
2023-05-09T14:31:19.048Z,9.20
2023-05-09T14:33:48.375Z,10.40
2023-05-09T14:36:17.594Z,9.65
2023-05-09T14:38:46.978Z,9.85
2023-05-09T14:41:16.251Z,10.18
2023-05-09T14:43:45.496Z,10.05
2023-05-09T14:46:16.280Z,10.93
2023-05-09T14:48:45.512Z,10.93
2023-05-09T14:51:14.627Z,9.60
2023-05-09T14:53:44.214Z,9.35
2023-05-09T14:56:13.265Z,8.27
2023-05-09T14:58:42.319Z,9.68
2023-05-09T15:01:11.416Z,8.85
2023-05-09T15:03:41.876Z,9.55
2023-05-09T15:06:11.745Z,10.50
2023-05-09T15:08:41.598Z,10.43
2023-05-09T15:11:10.716Z,10.15
2023-05-09T15:13:39.814Z,10.02
2023-05-09T15:16:08.895Z,7.95
2023-05-09T15:18:42.747Z,6.82
2023-05-09T15:21:13.349Z,7.75
2023-05-09T15:23:42.579Z,6.50
2023-05-09T15:26:12.372Z,7.07
2023-05-09T15:28:41.546Z,5.78
2023-05-09T15:31:10.611Z,5.75
2023-05-09T15:33:39.724Z,6.38
2023-05-09T15:36:09.818Z,7.30
2023-05-09T15:38:40.292Z,7.25
2023-05-09T15:41:09.844Z,7.00
2023-05-09T15:43:38.936Z,8.27
2023-05-09T15:46:08.120Z,6.97
2023-05-09T15:48:37.379Z,8.50
2023-05-09T15:51:07.237Z,8.23
2023-05-09T15:53:36.504Z,7.88
2023-05-09T15:56:07.809Z,6.78
2023-05-09T15:58:36.907Z,7.72
2023-05-09T16:01:08.073Z,7.53
2023-05-09T16:06:07.331Z,6.53
2023-05-09T16:08:36.412Z,7.10
2023-05-09T16:11:06.932Z,6.78
2023-05-09T16:13:36.297Z,6.47
2023-05-09T16:16:06.269Z,6.68
2023-05-09T16:18:35.439Z,6.22
2023-05-09T16:21:04.635Z,6.47
2023-05-09T16:23:33.808Z,6.95
2023-05-09T16:26:02.854Z,6.32
2023-05-09T16:28:33.252Z,7.03
2023-05-09T16:31:05.013Z,6.27
2023-05-09T16:33:34.178Z,6.90
2023-05-09T16:36:03.561Z,5.80
2023-05-09T16:38:32.608Z,6.13
2023-05-09T16:41:01.871Z,6.25
2023-05-09T16:43:32.337Z,7.32
2023-05-09T16:46:01.490Z,6.10
2023-05-09T16:48:30.597Z,7.05
2023-05-09T16:50:59.749Z,6.28
2023-05-09T16:53:29.446Z,7.10
2023-05-09T16:55:58.649Z,7.28
2023-05-09T16:58:27.760Z,6.07
2023-05-09T17:01:00.387Z,6.28
2023-05-09T17:03:32.576Z,5.47
2023-05-09T17:06:01.758Z,2.13
2023-05-09T17:08:31.081Z,1.27
2023-05-09T17:11:00.200Z,1.20
2023-05-09T17:13:29.423Z,1.50
2023-05-09T17:16:00.024Z,1.05
2023-05-09T17:18:36.570Z,0.88
2023-05-09T17:21:07.063Z,0.90
2023-05-09T17:23:36.068Z,0.88
2023-05-09T17:26:05.486Z,0.70
2023-05-09T17:28:34.620Z,0.70
2023-05-09T17:31:06.544Z,0.80
2023-05-09T17:33:35.707Z,0.90
2023-05-09T17:36:07.427Z,0.70
2023-05-09T17:38:36.548Z,0.77
2023-05-09T17:41:06.038Z,0.90
2023-05-09T17:43:35.117Z,1.23
2023-05-09T17:46:06.056Z,0.80
2023-05-09T17:48:35.123Z,0.90
2023-05-09T17:51:04.184Z,1.38
2023-05-09T17:53:33.237Z,1.30
2023-05-09T17:56:02.293Z,2.00
2023-05-09T17:58:31.923Z,3.08
2023-05-09T18:01:01.297Z,3.08
2023-05-09T18:03:32.375Z,2.92
2023-05-09T18:08:31.032Z,2.50
2023-05-09T18:11:00.093Z,2.97
2023-05-09T18:13:29.780Z,3.10
2023-05-09T18:16:02.894Z,3.40
2023-05-09T18:18:34.404Z,3.22
2023-05-09T18:21:04.995Z,2.33
2023-05-09T18:23:33.999Z,2.90
2023-05-09T18:26:03.481Z,3.03
2023-05-09T18:28:39.192Z,2.80
2023-05-09T18:31:10.191Z,2.53
2023-05-09T18:33:43.517Z,2.90
2023-05-09T18:36:12.892Z,2.90
2023-05-09T18:38:43.356Z,3.25
2023-05-09T18:41:13.468Z,3.33
2023-05-09T18:43:46.012Z,3.30
2023-05-09T18:46:17.484Z,4.35
2023-05-09T18:48:51.142Z,3.88
2023-05-09T18:51:20.664Z,3.50
2023-05-09T18:53:49.838Z,3.15
2023-05-09T18:56:21.055Z,3.53
2023-05-09T18:58:50.793Z,2.97
2023-05-09T19:01:20.722Z,2.95
2023-05-09T19:03:54.316Z,2.30
2023-05-09T19:06:24.179Z,2.42
2023-05-09T19:08:53.903Z,1.38
2023-05-09T19:11:23.376Z,1.50
2023-05-09T19:14:01.575Z,1.63
2023-05-09T19:16:31.061Z,1.40
2023-05-09T19:19:02.659Z,1.67
2023-05-09T19:21:32.060Z,1.80
2023-05-09T19:24:01.153Z,1.42
2023-05-09T19:26:30.378Z,1.60
2023-05-09T19:29:00.816Z,1.50
2023-05-09T19:31:31.363Z,1.50
2023-05-09T19:34:02.111Z,2.35
2023-05-09T19:36:31.244Z,1.40
2023-05-09T19:39:00.611Z,1.63
2023-05-09T19:41:29.733Z,1.20
2023-05-09T19:43:59.462Z,1.30
2023-05-09T19:46:28.806Z,1.40
2023-05-09T19:48:57.933Z,1.80
2023-05-09T19:51:28.355Z,2.17
2023-05-09T19:53:57.512Z,1.67
2023-05-09T19:56:26.567Z,1.65
2023-05-09T19:58:55.755Z,1.52
2023-05-09T20:01:25.290Z,1.35
2023-05-09T20:03:54.671Z,1.45
2023-05-09T20:06:25.483Z,1.55
2023-05-09T20:08:55.975Z,1.90
2023-05-09T20:11:25.209Z,1.70
2023-05-09T20:13:54.257Z,1.50
2023-05-09T20:16:23.768Z,1.40
2023-05-09T20:18:55.098Z,1.50
2023-05-09T20:21:26.442Z,1.30
2023-05-09T20:26:25.564Z,1.27
2023-05-09T20:29:01.266Z,1.38
2023-05-09T20:31:30.522Z,2.08
2023-05-09T20:34:00.335Z,1.70
2023-05-09T20:36:29.743Z,1.60
2023-05-09T20:39:00.154Z,1.70
2023-05-09T20:41:29.877Z,1.40
2023-05-09T20:44:04.064Z,1.88
2023-05-09T20:46:33.646Z,1.73
2023-05-09T20:49:04.173Z,1.60
2023-05-09T20:51:33.273Z,1.73
2023-05-09T20:54:03.910Z,1.65
2023-05-09T20:56:33.669Z,1.88
2023-05-09T20:59:04.078Z,1.67
2023-05-09T21:01:35.631Z,1.70
2023-05-09T21:06:34.932Z,1.60
2023-05-09T21:09:06.430Z,1.50
2023-05-09T21:11:35.428Z,1.48
2023-05-09T21:14:04.460Z,1.63
2023-05-09T21:16:33.567Z,1.75
2023-05-09T21:19:04.907Z,1.85
2023-05-09T21:24:09.063Z,1.40
2023-05-09T21:26:38.282Z,1.85
2023-05-09T21:29:07.556Z,1.80
2023-05-09T21:31:37.150Z,2.10
2023-05-09T21:34:10.048Z,2.30
2023-05-09T21:36:39.545Z,2.25
2023-05-09T21:39:10.510Z,2.58
2023-05-09T21:41:42.797Z,1.88
2023-05-09T21:44:12.362Z,2.00
2023-05-09T21:46:43.489Z,1.80
2023-05-09T21:49:12.619Z,2.33
2023-05-09T21:51:41.631Z,2.28
2023-05-09T21:54:12.023Z,1.73
2023-05-09T21:56:42.548Z,1.60
2023-05-09T21:59:11.596Z,2.13
2023-05-09T22:01:40.853Z,1.73
2023-05-09T22:04:10.367Z,2.28
2023-05-09T22:06:41.676Z,1.60
2023-05-09T22:11:40.939Z,1.73
2023-05-09T22:14:10.443Z,1.95
2023-05-09T22:16:39.549Z,1.50
2023-05-09T22:19:08.554Z,1.85
2023-05-09T22:21:37.571Z,2.03
2023-05-09T22:24:07.713Z,2.33
2023-05-09T22:26:38.175Z,1.70
2023-05-09T22:29:07.160Z,1.77
2023-05-09T22:31:36.207Z,1.55
2023-05-09T22:34:05.333Z,1.50
2023-05-09T22:36:34.322Z,2.25
2023-05-09T22:39:03.322Z,1.60
2023-05-09T22:41:32.353Z,1.75
2023-05-09T22:44:02.759Z,2.13
2023-05-09T22:46:31.769Z,1.70
2023-05-09T22:49:00.855Z,2.00
2023-05-09T22:51:29.911Z,2.00
2023-05-09T22:53:58.946Z,1.65
2023-05-09T22:56:28.316Z,1.55
2023-05-09T22:58:57.347Z,2.05
2023-05-09T23:01:28.680Z,2.10
2023-05-09T23:06:26.510Z,1.83
2023-05-09T23:08:55.501Z,2.55
2023-05-09T23:11:25.603Z,3.33
2023-05-09T23:13:54.608Z,2.20
2023-05-09T23:16:23.738Z,2.10
2023-05-09T23:18:54.193Z,2.20
2023-05-09T23:21:23.223Z,2.50
2023-05-09T23:23:52.225Z,2.17
2023-05-09T23:26:21.273Z,2.10
2023-05-09T23:28:50.323Z,2.13
2023-05-09T23:31:19.410Z,2.65
2023-05-09T23:33:48.457Z,1.77
2023-05-09T23:36:18.988Z,2.00
2023-05-09T23:38:47.986Z,1.90
2023-05-09T23:41:16.972Z,1.77
2023-05-09T23:43:46.004Z,2.17
2023-05-09T23:46:15.005Z,1.80
2023-05-09T23:48:44.123Z,2.00
2023-05-09T23:51:13.181Z,1.80
2023-05-09T23:53:43.648Z,2.10
2023-05-09T23:56:12.624Z,1.90
2023-05-09T23:58:41.616Z,2.30
